Time;durP1;ratioP1;P1;durP2;ratioP2;P2;SDS_P1;SDS_P2;PMS_P1;PMS_P2;Temp;Humidity;BMP_temperature;BMP_pressure;BME280_temperature;BME280_humidity;BME280_pressure;Samples;Min_cycle;Max_cycle;Signal;HPM_P1;HPM_P2
2022/03/15 00:02:08;;;;;;;11.95;6.80;;;11.40;99.90;;;;;;5055473;28;20256;-79
2022/03/15 00:04:34;;;;;;;14.07;5.97;;;11.30;99.90;;;;;;5061796;28;20167;-80
2022/03/15 00:06:59;;;;;;;19.85;6.10;;;11.30;99.90;;;;;;5038816;28;20252;-82
2022/03/15 00:09:25;;;;;;;17.60;6.88;;;11.40;99.90;;;;;;5053720;28;20163;-80
2022/03/15 00:11:54;;;;;;;12.77;5.93;;;11.40;99.90;;;;;;5053898;28;20233;-79
2022/03/15 00:14:20;;;;;;;14.82;6.45;;;11.30;99.90;;;;;;5053323;28;20175;-79
2022/03/15 00:16:46;;;;;;;14.52;6.28;;;11.30;99.90;;;;;;5053131;28;20266;-79
2022/03/15 00:19:12;;;;;;;11.52;4.97;;;11.20;99.90;;;;;;5052746;28;20586;-80
2022/03/15 00:21:38;;;;;;;19.67;6.90;;;11.10;99.90;;;;;;5052782;28;20186;-79
2022/03/15 00:24:06;;;;;;;16.42;5.43;;;11.10;99.90;;;;;;5053163;28;20167;-79
2022/03/15 00:26:32;;;;;;;28.98;6.22;;;10.90;99.90;;;;;;5052805;28;21164;-79
2022/03/15 00:28:58;;;;;;;15.48;5.75;;;10.90;99.90;;;;;;5034947;28;20650;-79
2022/03/15 00:31:24;;;;;;;17.90;6.13;;;11.10;99.90;;;;;;5052855;28;20557;-80
2022/03/15 00:33:49;;;;;;;19.08;5.65;;;11.10;99.90;;;;;;5052633;28;20172;-80
2022/03/15 00:36:15;;;;;;;25.23;6.15;;;11.10;99.90;;;;;;5053310;28;20201;-79
2022/03/15 00:38:41;;;;;;;14.40;6.15;;;11.10;99.90;;;;;;5053880;28;20167;-80
2022/03/15 00:41:08;;;;;;;8.55;5.40;;;10.90;99.90;;;;;;5053259;28;20260;-80
2022/03/15 00:43:34;;;;;;;20.27;6.38;;;11.00;99.90;;;;;;5053096;28;20171;-80
2022/03/15 00:46:00;;;;;;;24.05;7.22;;;10.90;99.90;;;;;;5052785;28;20644;-81
2022/03/15 00:48:26;;;;;;;25.88;7.15;;;10.90;99.90;;;;;;5038343;28;20186;-80
2022/03/15 00:50:52;;;;;;;22.27;7.72;;;11.00;99.90;;;;;;5060007;28;20166;-79
2022/03/15 00:53:18;;;;;;;26.38;8.32;;;10.90;99.90;;;;;;5041628;28;20167;-79
2022/03/15 00:55:44;;;;;;;24.42;7.57;;;10.90;99.90;;;;;;5041235;28;20186;-79
2022/03/15 00:58:10;;;;;;;20.00;7.60;;;10.80;99.90;;;;;;5059971;28;20167;-79
2022/03/15 01:00:36;;;;;;;24.60;8.40;;;10.90;99.90;;;;;;5042006;28;20190;-85
2022/03/15 01:03:03;;;;;;;17.65;7.22;;;11.00;99.90;;;;;;5059723;28;20272;-79
2022/03/15 01:05:29;;;;;;;15.18;7.25;;;10.80;99.90;;;;;;5059027;28;20183;-85
2022/03/15 01:07:55;;;;;;;14.85;6.50;;;10.80;99.90;;;;;;5060632;28;20163;-80
2022/03/15 01:10:21;;;;;;;18.05;8.60;;;10.60;99.90;;;;;;5060078;28;20208;-79
2022/03/15 01:12:47;;;;;;;15.63;6.90;;;10.70;99.90;;;;;;5059844;28;20650;-79
2022/03/15 01:15:12;;;;;;;18.38;7.25;;;10.90;99.90;;;;;;5059614;28;20167;-85
2022/03/15 01:17:39;;;;;;;21.00;7.07;;;10.90;99.90;;;;;;5059687;28;20159;-80
2022/03/15 01:20:07;;;;;;;13.85;6.55;;;10.70;99.90;;;;;;5060713;28;20173;-81
2022/03/15 01:22:33;;;;;;;22.60;6.57;;;10.60;99.90;;;;;;5059751;28;20206;-82
2022/03/15 01:24:59;;;;;;;19.02;7.03;;;10.70;99.90;;;;;;5042227;28;20257;-80
2022/03/15 01:27:24;;;;;;;19.05;6.95;;;10.70;99.90;;;;;;5041002;28;20191;-82
2022/03/15 01:29:50;;;;;;;21.23;7.75;;;10.70;99.90;;;;;;5059303;28;20178;-80
2022/03/15 01:32:16;;;;;;;17.50;7.43;;;10.70;99.90;;;;;;5059516;28;20647;-80
2022/03/15 01:34:42;;;;;;;15.45;6.43;;;10.80;99.90;;;;;;5059070;28;20163;-79
2022/03/15 01:37:08;;;;;;;22.38;6.95;;;10.70;99.90;;;;;;5061483;28;20187;-81
2022/03/15 01:39:33;;;;;;;17.58;5.88;;;10.90;99.90;;;;;;5059802;28;20164;-80
2022/03/15 01:42:00;;;;;;;14.85;6.07;;;10.90;99.90;;;;;;5059398;28;20194;-85
2022/03/15 01:44:26;;;;;;;14.38;7.22;;;10.90;99.90;;;;;;5059901;28;20166;-86
2022/03/15 01:46:53;;;;;;;23.67;6.65;;;10.80;99.90;;;;;;5061117;28;20183;-81
2022/03/15 01:49:19;;;;;;;21.35;6.32;;;10.70;99.90;;;;;;5064857;28;20151;-79
2022/03/15 01:51:47;;;;;;;27.58;9.85;;;10.70;99.90;;;;;;5046946;28;20240;-80
2022/03/15 01:54:14;;;;;;;29.05;9.63;;;10.90;99.90;;;;;;5064882;28;20269;-80
2022/03/15 01:56:43;;;;;;;25.40;9.20;;;10.70;99.90;;;;;;5047805;28;20194;-82
2022/03/15 01:59:11;;;;;;;29.65;9.38;;;10.70;99.90;;;;;;5046165;28;20221;-81
2022/03/15 02:01:39;;;;;;;32.72;8.65;;;10.80;99.90;;;;;;5062357;28;20214;-80
2022/03/15 02:04:05;;;;;;;21.90;7.85;;;10.70;99.90;;;;;;5061743;28;20156;-80
2022/03/15 02:06:35;;;;;;;17.15;7.30;;;10.60;99.90;;;;;;5062368;28;20186;-80
2022/03/15 02:09:09;;;;;;;18.38;7.60;;;10.70;99.90;;;;;;5061174;28;20173;-80
2022/03/15 02:11:35;;;;;;;19.08;7.70;;;10.80;99.90;;;;;;5026301;28;20215;-80
2022/03/15 02:14:05;;;;;;;20.85;7.60;;;10.80;99.90;;;;;;5056611;28;20167;-81
2022/03/15 02:16:32;;;;;;;20.88;7.05;;;10.80;99.90;;;;;;5045322;28;20199;-83
2022/03/15 02:18:59;;;;;;;20.13;8.15;;;10.70;99.90;;;;;;5046175;28;20168;-81
2022/03/15 02:21:26;;;;;;;15.57;7.07;;;10.60;99.90;;;;;;5046108;28;20211;-81
2022/03/15 02:23:52;;;;;;;16.90;6.60;;;10.60;99.90;;;;;;5042709;28;20168;-81
2022/03/15 02:26:18;;;;;;;21.23;6.38;;;10.60;99.90;;;;;;5026231;28;20195;-82
2022/03/15 02:28:46;;;;;;;14.52;5.93;;;10.60;99.90;;;;;;5043168;28;20178;-79
2022/03/15 02:31:12;;;;;;;14.88;5.90;;;10.30;99.90;;;;;;5024081;28;20171;-83
2022/03/15 02:33:38;;;;;;;16.15;5.57;;;10.50;99.90;;;;;;5057961;28;20167;-81
2022/03/15 02:36:04;;;;;;;11.20;5.55;;;10.40;99.90;;;;;;5040935;28;20190;-80
2022/03/15 02:38:30;;;;;;;10.60;6.35;;;10.50;99.90;;;;;;5042680;28;20163;-79
2022/03/15 02:40:56;;;;;;;18.35;5.97;;;10.50;99.90;;;;;;5063628;28;20705;-81
2022/03/15 02:43:22;;;;;;;16.83;5.15;;;10.50;99.90;;;;;;5042857;28;20198;-80
2022/03/15 02:45:48;;;;;;;11.40;4.90;;;10.60;99.90;;;;;;5064441;28;20195;-82
2022/03/15 02:48:13;;;;;;;14.25;5.22;;;10.70;99.90;;;;;;5055732;28;20171;-82
2022/03/15 02:50:39;;;;;;;10.75;4.65;;;10.70;99.90;;;;;;5053469;28;20209;-81
2022/03/15 02:53:04;;;;;;;11.02;4.80;;;10.70;99.90;;;;;;5072047;28;20218;-79
2022/03/15 02:55:32;;;;;;;11.85;4.82;;;10.60;99.90;;;;;;5064981;28;20179;-81
2022/03/15 02:58:02;;;;;;;6.63;4.18;;;10.70;99.90;;;;;;5060113;28;20170;-79
2022/03/15 03:00:31;;;;;;;12.15;3.97;;;10.80;99.90;;;;;;5061706;28;20167;-80
2022/03/15 03:02:57;;;;;;;8.05;4.85;;;10.90;99.90;;;;;;5042608;28;20207;-80
2022/03/15 03:05:24;;;;;;;12.20;5.10;;;11.00;99.90;;;;;;5067445;28;20160;-87
2022/03/15 03:07:51;;;;;;;12.02;4.85;;;11.00;99.90;;;;;;5046492;28;20245;-80
2022/03/15 03:10:17;;;;;;;20.15;5.38;;;11.00;99.90;;;;;;5065427;28;20178;-82
2022/03/15 03:12:48;;;;;;;12.32;5.15;;;10.80;99.90;;;;;;5064017;28;20179;-85
2022/03/15 03:15:17;;;;;;;10.57;4.00;;;10.70;99.90;;;;;;5060874;28;20171;-79
2022/03/15 03:17:44;;;;;;;9.63;4.40;;;10.70;99.90;;;;;;5058953;28;20174;-79
2022/03/15 03:20:12;;;;;;;8.70;4.13;;;10.80;99.90;;;;;;5057036;28;20178;-81
2022/03/15 03:22:39;;;;;;;12.68;4.47;;;11.00;99.90;;;;;;5039685;28;20679;-81
2022/03/15 03:25:05;;;;;;;7.90;3.78;;;10.90;99.90;;;;;;5056764;28;20163;-81
2022/03/15 03:27:31;;;;;;;6.55;4.13;;;10.90;99.90;;;;;;5057872;28;20194;-80
2022/03/15 03:30:00;;;;;;;11.48;4.15;;;10.70;99.90;;;;;;5040162;28;20175;-80
2022/03/15 03:32:26;;;;;;;7.68;3.65;;;10.60;99.90;;;;;;5059111;28;20189;-80
2022/03/15 03:34:54;;;;;;;8.63;4.15;;;10.70;99.90;;;;;;5060511;28;20163;-81
2022/03/15 03:37:20;;;;;;;9.90;3.90;;;10.80;99.90;;;;;;5041891;28;20187;-82
2022/03/15 03:39:46;;;;;;;6.45;4.00;;;11.10;99.90;;;;;;5043335;28;20586;-81
2022/03/15 03:42:12;;;;;;;16.40;4.13;;;11.10;99.90;;;;;;5041437;28;20217;-83
2022/03/15 03:44:40;;;;;;;12.40;5.25;;;11.00;99.90;;;;;;5039116;28;20167;-80
2022/03/15 03:47:06;;;;;;;8.77;4.00;;;11.20;99.90;;;;;;5042598;28;20751;-81
2022/03/15 03:49:32;;;;;;;15.23;4.20;;;11.10;99.90;;;;;;5058853;28;20175;-81
2022/03/15 03:51:58;;;;;;;5.93;3.25;;;11.10;99.90;;;;;;5041491;28;20195;-86
2022/03/15 03:54:24;;;;;;;7.68;3.88;;;10.80;99.90;;;;;;5056952;28;20175;-78
2022/03/15 03:56:50;;;;;;;11.48;4.05;;;10.90;99.90;;;;;;5056921;28;20203;-79
2022/03/15 03:59:17;;;;;;;9.52;4.18;;;10.90;99.90;;;;;;5056766;28;20171;-80
2022/03/15 04:01:43;;;;;;;5.57;3.15;;;10.90;99.90;;;;;;5057388;28;20561;-79
2022/03/15 04:04:11;;;;;;;9.02;3.47;;;11.00;99.90;;;;;;5057547;28;20242;-80
2022/03/15 04:06:39;;;;;;;5.57;3.15;;;11.00;99.90;;;;;;5057632;28;20214;-80
2022/03/15 04:09:06;;;;;;;12.00;3.42;;;11.00;99.90;;;;;;5061616;28;20177;-80
2022/03/15 04:11:32;;;;;;;5.07;3.15;;;11.00;99.90;;;;;;5036152;28;20187;-81
2022/03/15 04:14:03;;;;;;;10.52;3.53;;;10.90;99.90;;;;;;5056284;28;20175;-79
2022/03/15 04:16:29;;;;;;;7.22;2.75;;;10.70;99.90;;;;;;5057977;28;20187;-80
2022/03/15 04:18:56;;;;;;;10.18;3.35;;;10.80;99.90;;;;;;5055650;28;20241;-79
2022/03/15 04:21:24;;;;;;;10.30;3.78;;;10.90;99.90;;;;;;5057025;28;20171;-81
2022/03/15 04:23:52;;;;;;;10.90;4.32;;;10.80;99.90;;;;;;5039089;28;20175;-82
2022/03/15 04:26:18;;;;;;;14.15;3.65;;;10.70;99.90;;;;;;5056982;28;20265;-80
2022/03/15 04:28:44;;;;;;;19.40;3.03;;;10.70;99.90;;;;;;5056928;28;20163;-82
2022/03/15 04:31:09;;;;;;;8.50;2.60;;;10.70;99.90;;;;;;5039233;28;20179;-86
2022/03/15 04:33:35;;;;;;;9.07;3.50;;;10.90;99.90;;;;;;5041028;28;20174;-79
2022/03/15 04:36:00;;;;;;;7.22;2.85;;;10.90;99.90;;;;;;5040191;28;20190;-81
2022/03/15 04:38:29;;;;;;;9.43;2.97;;;11.00;99.90;;;;;;5055639;28;20175;-81
2022/03/15 04:40:55;;;;;;;9.25;2.60;;;10.90;99.90;;;;;;5057067;28;20171;-80
2022/03/15 04:43:22;;;;;;;6.28;2.30;;;10.90;99.90;;;;;;5038934;28;20217;-80
2022/03/15 04:45:49;;;;;;;8.63;2.85;;;10.90;99.90;;;;;;5056262;28;20199;-86
2022/03/15 04:48:15;;;;;;;11.48;3.65;;;10.90;99.90;;;;;;5054941;28;20167;-79
2022/03/15 04:50:41;;;;;;;12.23;3.05;;;11.00;99.90;;;;;;5052655;28;20182;-83
2022/03/15 04:53:07;;;;;;;10.52;2.92;;;11.10;99.90;;;;;;5052685;28;20210;-79
2022/03/15 04:55:32;;;;;;;7.68;3.40;;;10.90;99.90;;;;;;5052684;28;20199;-80
2022/03/15 04:57:58;;;;;;;23.33;2.92;;;10.70;99.90;;;;;;5052524;28;20632;-79
2022/03/15 05:00:24;;;;;;;13.50;3.08;;;10.70;99.90;;;;;;5036702;28;20167;-85
2022/03/15 05:02:49;;;;;;;9.10;2.67;;;10.80;99.90;;;;;;5020651;28;20207;-81
2022/03/15 05:05:15;;;;;;;14.75;2.95;;;10.60;99.90;;;;;;5057214;28;20234;-80
2022/03/15 05:07:41;;;;;;;12.77;3.30;;;10.50;99.90;;;;;;5058477;28;20171;-80
2022/03/15 05:12:51;;;;;;;12.10;3.28;;;10.50;99.90;;;;;;5057971;28;20194;-81
2022/03/15 05:15:17;;;;;;;11.27;3.35;;;10.60;99.90;;;;;;5055899;28;20167;-84
2022/03/15 05:17:43;;;;;;;5.78;2.72;;;10.60;99.90;;;;;;5055158;28;20177;-79
2022/03/15 05:20:10;;;;;;;6.45;2.78;;;10.70;99.90;;;;;;5055215;28;20535;-81
2022/03/15 05:22:35;;;;;;;11.57;3.03;;;10.50;99.90;;;;;;5044233;28;20343;-81
2022/03/15 05:25:01;;;;;;;5.40;2.38;;;10.60;99.90;;;;;;5054822;28;20179;-80
2022/03/15 05:27:27;;;;;;;4.70;3.05;;;10.60;99.90;;;;;;5038394;28;20196;-80
2022/03/15 05:29:53;;;;;;;7.72;3.08;;;10.60;99.90;;;;;;5039602;28;20661;-79
2022/03/15 05:32:19;;;;;;;6.80;3.08;;;10.70;99.90;;;;;;5057264;28;20301;-80
2022/03/15 05:34:46;;;;;;;4.00;2.17;;;10.80;99.90;;;;;;5041674;28;20209;-80
2022/03/15 05:37:11;;;;;;;21.42;3.33;;;10.70;99.90;;;;;;5045328;28;20221;-86
2022/03/15 05:39:37;;;;;;;6.25;2.72;;;10.70;99.90;;;;;;5057765;28;20655;-81
2022/03/15 05:42:04;;;;;;;18.00;2.70;;;10.70;99.90;;;;;;5061023;28;20214;-80
2022/03/15 05:44:31;;;;;;;12.48;3.47;;;10.70;99.90;;;;;;5061532;28;20193;-80
2022/03/15 05:46:57;;;;;;;6.70;3.20;;;10.60;99.90;;;;;;5062901;28;20548;-85
2022/03/15 05:49:23;;;;;;;8.20;3.30;;;10.70;99.90;;;;;;5042451;28;20246;-80
2022/03/15 05:51:50;;;;;;;7.40;3.00;;;10.80;99.90;;;;;;5045451;28;20172;-81
2022/03/15 05:54:17;;;;;;;3.63;2.65;;;10.90;99.90;;;;;;5060590;28;20175;-80
2022/03/15 05:56:46;;;;;;;3.40;2.10;;;11.00;99.90;;;;;;5059987;28;20202;-81
2022/03/15 05:59:13;;;;;;;11.05;2.65;;;10.80;99.90;;;;;;5061004;28;20231;-81
2022/03/15 06:01:39;;;;;;;5.35;2.22;;;10.80;99.90;;;;;;5059424;28;20238;-81
2022/03/15 06:04:07;;;;;;;5.28;2.67;;;10.80;99.90;;;;;;5038600;28;20236;-80
2022/03/15 06:06:34;;;;;;;8.68;3.20;;;10.80;99.90;;;;;;5060373;28;20235;-80
2022/03/15 06:08:59;;;;;;;12.05;3.35;;;10.70;99.90;;;;;;5038442;28;20185;-82
2022/03/15 06:11:25;;;;;;;3.72;2.40;;;10.80;99.90;;;;;;5038383;28;20274;-79
2022/03/15 06:13:51;;;;;;;6.35;2.38;;;10.90;99.90;;;;;;5056537;28;20687;-79
2022/03/15 06:16:16;;;;;;;12.02;3.80;;;10.90;99.90;;;;;;5056724;28;20279;-80
2022/03/15 06:18:42;;;;;;;10.05;3.08;;;11.00;99.90;;;;;;5039238;28;20167;-79
2022/03/15 06:21:07;;;;;;;6.47;3.15;;;11.00;99.90;;;;;;5056244;28;20202;-79
2022/03/15 06:23:33;;;;;;;5.90;2.53;;;11.00;99.90;;;;;;5056392;28;20207;-80
2022/03/15 06:25:58;;;;;;;4.07;2.63;;;11.10;99.90;;;;;;5056705;28;20586;-79
2022/03/15 06:28:24;;;;;;;7.22;2.40;;;11.00;99.90;;;;;;5056979;28;20174;-81
2022/03/15 06:30:50;;;;;;;14.23;2.55;;;10.80;99.90;;;;;;5056647;28;20608;-81
2022/03/15 06:33:15;;;;;;;9.10;2.63;;;10.90;99.90;;;;;;5038868;28;20171;-79
2022/03/15 06:35:46;;;;;;;5.78;3.00;;;11.00;99.90;;;;;;5056344;28;20195;-82
2022/03/15 06:38:12;;;;;;;10.98;2.90;;;11.10;99.90;;;;;;5056678;28;20167;-79
2022/03/15 06:40:40;;;;;;;4.53;2.53;;;11.10;99.90;;;;;;5056205;28;20202;-80
2022/03/15 06:43:06;;;;;;;5.68;2.85;;;10.90;99.90;;;;;;5056989;28;20206;-81
2022/03/15 06:45:32;;;;;;;7.53;2.60;;;10.90;99.90;;;;;;5057579;28;20184;-81
2022/03/15 06:47:58;;;;;;;13.18;3.53;;;11.00;99.90;;;;;;5056783;28;20172;-84
2022/03/15 06:50:24;;;;;;;7.32;2.65;;;11.20;99.90;;;;;;5039994;28;20580;-80
2022/03/15 06:52:49;;;;;;;19.98;3.70;;;11.20;99.90;;;;;;5056904;28;20242;-80
2022/03/15 06:55:16;;;;;;;15.13;4.05;;;11.10;99.90;;;;;;5056491;28;20169;-84
2022/03/15 06:57:46;;;;;;;10.00;3.63;;;11.20;99.90;;;;;;5038965;28;20272;-80
2022/03/15 07:00:15;;;;;;;9.63;4.28;;;11.20;99.90;;;;;;5056140;28;20181;-80
2022/03/15 07:02:40;;;;;;;8.20;3.83;;;11.10;99.90;;;;;;5039463;28;20637;-80
2022/03/15 07:05:08;;;;;;;7.57;4.25;;;11.10;99.90;;;;;;5057546;28;20194;-79
2022/03/15 07:07:34;;;;;;;20.83;3.85;;;10.90;99.90;;;;;;5043043;28;20278;-79
2022/03/15 07:10:01;;;;;;;15.85;3.80;;;10.90;99.90;;;;;;5044381;28;20241;-80
2022/03/15 07:12:27;;;;;;;12.63;4.78;;;10.90;99.90;;;;;;5045821;28;20182;-85
2022/03/15 07:14:53;;;;;;;20.33;4.43;;;10.70;99.90;;;;;;5065248;28;20182;-79
2022/03/15 07:17:19;;;;;;;11.15;4.20;;;10.50;99.90;;;;;;5072698;28;20260;-81
2022/03/15 07:19:45;;;;;;;20.98;4.88;;;10.50;99.90;;;;;;5073370;28;20202;-81
2022/03/15 07:22:11;;;;;;;40.03;6.03;;;10.40;99.90;;;;;;5056834;28;20217;-84
2022/03/15 07:24:36;;;;;;;15.60;5.78;;;10.30;99.90;;;;;;5057642;28;20182;-80
2022/03/15 07:27:03;;;;;;;8.80;4.63;;;10.40;99.90;;;;;;5058062;28;20187;-79
2022/03/15 07:29:29;;;;;;;10.18;4.80;;;10.40;99.90;;;;;;5073466;28;20164;-79
2022/03/15 07:31:55;;;;;;;15.38;4.82;;;10.50;99.90;;;;;;5063781;28;20271;-79
2022/03/15 07:34:21;;;;;;;20.80;5.45;;;10.50;99.90;;;;;;5062411;28;20309;-80
2022/03/15 07:36:46;;;;;;;13.55;4.78;;;10.60;99.90;;;;;;5061817;28;20680;-79
2022/03/15 07:39:12;;;;;;;8.02;4.40;;;10.70;99.90;;;;;;5063156;28;20209;-83
2022/03/15 07:41:40;;;;;;;10.98;4.90;;;10.60;99.90;;;;;;5043681;28;20199;-81
2022/03/15 07:44:10;;;;;;;12.95;6.28;;;10.60;99.90;;;;;;5040478;28;20171;-86
2022/03/15 07:46:37;;;;;;;48.83;8.63;;;10.80;99.90;;;;;;5038139;28;20651;-81
2022/03/15 07:49:04;;;;;;;15.30;4.38;;;10.70;99.90;;;;;;5037644;28;20213;-81
2022/03/15 07:51:29;;;;;;;6.32;4.25;;;10.70;99.90;;;;;;5038847;28;20174;-80
2022/03/15 07:53:56;;;;;;;14.63;4.72;;;10.70;99.90;;;;;;5055089;28;20167;-82
2022/03/15 07:56:22;;;;;;;17.13;4.75;;;10.80;99.90;;;;;;5038858;28;20556;-80
2022/03/15 07:58:47;;;;;;;12.73;4.72;;;10.90;99.90;;;;;;5055138;28;20163;-79
2022/03/15 08:01:13;;;;;;;37.72;18.13;;;11.00;99.90;;;;;;5063146;28;20175;-80
2022/03/15 08:03:39;;;;;;;16.08;8.55;;;10.90;99.90;;;;;;5040509;28;20502;-82
2022/03/15 08:06:05;;;;;;;484.90;347.27;;;11.00;99.90;;;;;;5038481;28;20226;-82
2022/03/15 08:08:30;;;;;;;160.45;103.13;;;10.90;99.90;;;;;;5055478;28;20167;-80
2022/03/15 08:10:56;;;;;;;88.90;56.30;;;11.20;99.90;;;;;;5056153;28;20190;-84
2022/03/15 08:13:22;;;;;;;228.45;156.43;;;11.40;99.90;;;;;;5060808;28;20195;-81
2022/03/15 08:15:48;;;;;;;181.70;105.32;;;11.40;99.90;;;;;;5058337;28;20590;-81
2022/03/15 08:18:16;;;;;;;411.65;272.23;;;11.40;99.90;;;;;;5040045;28;20167;-82
2022/03/15 08:20:42;;;;;;;110.95;47.22;;;11.40;99.90;;;;;;5059936;28;20254;-83
2022/03/15 08:23:12;;;;;;;51.00;26.95;;;11.60;99.90;;;;;;5058776;28;20195;-83
2022/03/15 08:25:38;;;;;;;39.97;9.10;;;11.70;99.90;;;;;;5056937;28;20217;-82
2022/03/15 08:28:05;;;;;;;15.63;5.50;;;11.30;99.90;;;;;;5041659;28;20179;-81
2022/03/15 08:30:30;;;;;;;113.50;79.28;;;11.40;99.90;;;;;;5060176;28;20171;-82
2022/03/15 08:32:57;;;;;;;40.78;13.25;;;11.40;99.90;;;;;;5060012;28;20253;-83
2022/03/15 08:35:22;;;;;;;48.13;9.90;;;11.40;99.90;;;;;;5057347;28;20160;-85
2022/03/15 08:37:53;;;;;;;21.67;4.70;;;11.40;99.90;;;;;;5037279;28;20274;-82
2022/03/15 08:40:21;;;;;;;21.95;5.20;;;11.40;99.90;;;;;;5055424;28;20515;-81
2022/03/15 08:42:46;;;;;;;27.50;10.77;;;11.30;99.90;;;;;;5037497;28;20215;-84
2022/03/15 08:45:12;;;;;;;31.27;6.65;;;11.10;99.90;;;;;;5054412;28;20168;-82
2022/03/15 08:47:38;;;;;;;72.80;19.60;;;11.00;99.90;;;;;;5035282;28;20207;-87
2022/03/15 08:50:07;;;;;;;17.92;6.68;;;11.00;99.90;;;;;;5053487;28;20174;-83
2022/03/15 08:52:33;;;;;;;15.32;5.00;;;11.10;99.90;;;;;;5053956;28;20175;-84
2022/03/15 08:55:00;;;;;;;10.82;4.40;;;11.00;99.90;;;;;;5035736;28;20527;-80
2022/03/15 08:57:26;;;;;;;26.30;5.90;;;11.10;99.90;;;;;;5034629;28;20191;-80
2022/03/15 08:59:52;;;;;;;11.18;4.03;;;11.00;99.90;;;;;;5035061;28;20258;-85
2022/03/15 09:02:18;;;;;;;27.42;6.05;;;11.00;99.90;;;;;;5052991;28;20257;-84
2022/03/15 09:04:44;;;;;;;13.20;4.18;;;11.20;99.90;;;;;;5053970;28;20221;-85
2022/03/15 09:07:10;;;;;;;17.20;4.13;;;11.30;99.90;;;;;;5033441;28;20175;-79
2022/03/15 09:09:36;;;;;;;16.73;3.83;;;11.30;99.90;;;;;;5053898;28;20170;-84
2022/03/15 09:12:03;;;;;;;10.95;4.63;;;11.30;99.90;;;;;;5039033;28;20340;-80
2022/03/15 09:14:29;;;;;;;23.33;4.53;;;11.30;99.90;;;;;;5038355;28;20198;-82
2022/03/15 09:16:54;;;;;;;11.00;4.22;;;11.40;99.90;;;;;;5039346;28;20226;-84
2022/03/15 09:19:20;;;;;;;5.55;3.38;;;11.40;99.90;;;;;;5059643;28;20156;-93
2022/03/15 09:21:46;;;;;;;12.48;3.65;;;11.50;99.90;;;;;;5042842;28;20206;-93
2022/03/15 09:24:12;;;;;;;13.27;3.95;;;11.70;99.90;;;;;;5043268;28;20536;-90
2022/03/15 09:26:42;;;;;;;7.45;4.60;;;11.60;99.90;;;;;;5059266;28;20183;-82
2022/03/15 09:29:12;;;;;;;11.25;3.88;;;11.60;99.90;;;;;;5058456;28;20167;-83
2022/03/15 09:31:38;;;;;;;29.58;6.03;;;11.60;99.90;;;;;;5043056;28;20205;-82
2022/03/15 09:34:04;;;;;;;32.65;9.32;;;11.70;99.90;;;;;;5042653;28;20176;-92
2022/03/15 09:36:30;;;;;;;12.38;3.92;;;11.80;99.90;;;;;;5041875;28;20222;-86
2022/03/15 09:38:56;;;;;;;6.10;3.58;;;11.90;99.90;;;;;;5042033;28;20171;-89
2022/03/15 09:41:26;;;;;;;6.63;3.58;;;12.00;99.90;;;;;;5040481;28;20179;-92
2022/03/15 09:43:54;;;;;;;18.05;4.63;;;12.00;99.90;;;;;;5044091;28;20197;-83
2022/03/15 09:46:22;;;;;;;20.08;4.60;;;12.30;99.90;;;;;;5059390;28;20191;-82
2022/03/15 09:48:58;;;;;;;6.78;3.15;;;12.50;99.90;;;;;;5041203;28;20171;-82
2022/03/15 09:51:27;;;;;;;5.95;3.83;;;12.40;99.90;;;;;;5057092;28;20294;-81
2022/03/15 09:53:55;;;;;;;9.27;4.13;;;12.60;99.90;;;;;;5040328;28;20182;-84
2022/03/15 09:56:21;;;;;;;11.02;3.72;;;13.00;99.90;;;;;;5058124;28;20190;-84
2022/03/15 09:58:47;;;;;;;8.85;3.85;;;13.00;99.90;;;;;;5057746;28;20178;-87
2022/03/15 10:01:19;;;;;;;16.02;3.65;;;13.10;99.90;;;;;;5044367;28;20160;-81
2022/03/15 10:03:46;;;;;;;7.30;3.03;;;13.10;99.90;;;;;;5057829;28;20180;-81
2022/03/15 10:06:15;;;;;;;7.85;3.42;;;13.10;99.90;;;;;;5056994;28;20187;-82
2022/03/15 10:08:42;;;;;;;13.63;4.03;;;13.00;99.90;;;;;;5056990;28;20159;-81
2022/03/15 10:11:09;;;;;;;17.23;3.17;;;12.90;99.90;;;;;;5049195;28;20596;-83
2022/03/15 10:13:35;;;;;;;10.85;3.83;;;12.90;99.90;;;;;;5059485;28;20167;-83
2022/03/15 10:16:03;;;;;;;10.02;4.30;;;12.80;99.90;;;;;;5040255;28;20198;-91
2022/03/15 10:18:31;;;;;;;11.45;3.53;;;12.90;99.90;;;;;;5057880;28;20172;-86
2022/03/15 10:20:56;;;;;;;85.68;21.13;;;12.90;99.90;;;;;;5058507;28;20210;-82
2022/03/15 10:23:29;;;;;;;9.80;5.32;;;13.00;99.90;;;;;;5040864;28;20207;-81
2022/03/15 10:25:56;;;;;;;440.65;75.43;;;13.20;99.90;;;;;;5043100;28;20259;-81
2022/03/15 10:28:23;;;;;;;83.00;21.00;;;13.50;99.90;;;;;;5055977;28;20167;-80
2022/03/15 10:30:49;;;;;;;49.67;11.63;;;13.70;99.90;;;;;;5038934;28;20178;-83
2022/03/15 10:33:20;;;;;;;20.35;5.88;;;13.70;99.90;;;;;;5032636;28;20171;-80
2022/03/15 10:35:49;;;;;;;35.88;6.50;;;13.10;99.90;;;;;;5055393;28;20286;-81
2022/03/15 10:38:15;;;;;;;35.88;8.27;;;13.20;99.90;;;;;;5049304;28;20167;-82
2022/03/15 10:40:44;;;;;;;21.80;7.18;;;13.30;99.90;;;;;;5047598;28;20213;-84
2022/03/15 10:43:15;;;;;;;16.63;4.15;;;13.70;99.90;;;;;;5039674;28;20246;-83
2022/03/15 10:45:50;;;;;;;16.88;7.05;;;13.80;99.90;;;;;;5039871;28;20190;-86
2022/03/15 10:48:25;;;;;;;6.25;2.90;;;14.00;99.90;;;;;;5057109;28;20415;-89
2022/03/15 10:51:15;;;;;;;7.88;2.95;;;14.00;99.90;;;;;;5061886;28;20167;-84
2022/03/15 10:53:47;;;;;;;597.05;132.15;;;14.20;99.90;;;;;;5047141;28;20183;-82
2022/03/15 10:56:19;;;;;;;149.70;32.42;;;14.00;99.90;;;;;;5048052;28;20234;-84
2022/03/15 10:58:45;;;;;;;138.02;29.20;;;13.90;99.90;;;;;;5032165;28;20183;-87
2022/03/15 11:01:11;;;;;;;214.90;39.90;;;13.90;99.90;;;;;;5062383;28;20167;-88
2022/03/15 11:03:37;;;;;;;78.93;22.63;;;13.90;99.90;;;;;;5046287;28;20214;-81
2022/03/15 11:06:08;;;;;;;106.38;19.98;;;14.00;99.90;;;;;;5065221;28;20178;-81
2022/03/15 11:08:36;;;;;;;89.75;15.38;;;13.70;99.90;;;;;;5067296;28;20179;-82
2022/03/15 11:11:06;;;;;;;109.38;35.72;;;13.80;99.90;;;;;;5048238;28;21239;-80
2022/03/15 11:13:32;;;;;;;43.03;10.55;;;13.80;99.90;;;;;;5043428;28;20632;-83
2022/03/15 11:15:59;;;;;;;58.90;11.73;;;14.00;99.90;;;;;;5040257;28;20249;-88
2022/03/15 11:18:30;;;;;;;39.85;10.95;;;14.10;99.90;;;;;;5057650;28;20365;-84
2022/03/15 11:20:58;;;;;;;7.60;1.30;;;13.90;99.90;;;;;;5040840;28;20163;-81
2022/03/15 11:23:25;;;;;;;24.95;7.35;;;14.00;99.90;;;;;;5040513;28;20214;-80
2022/03/15 11:26:06;;;;;;;49.42;13.07;;;14.50;99.90;;;;;;5062583;28;20573;-83
2022/03/15 11:28:34;;;;;;;110.22;30.30;;;14.70;99.90;;;;;;5058297;28;20476;-90
2022/03/15 11:31:00;;;;;;;16.05;2.58;;;15.10;99.90;;;;;;5039154;28;20190;-85
2022/03/15 11:33:27;;;;;;;0.68;0.60;;;14.80;99.90;;;;;;5057392;28;20203;-81
2022/03/15 11:35:53;;;;;;;108.40;18.67;;;14.80;99.90;;;;;;5040199;28;20721;-83
2022/03/15 11:38:20;;;;;;;1.77;1.10;;;15.10;99.90;;;;;;5059915;28;20207;-82
2022/03/15 11:40:54;;;;;;;1.42;0.70;;;15.00;99.90;;;;;;5058764;28;20159;-82
2022/03/15 11:43:56;;;;;;;1.08;0.90;;;14.60;99.90;;;;;;5039818;28;20741;-83
2022/03/15 11:46:45;;;;;;;1.70;1.10;;;14.40;99.90;;;;;;5037891;28;20686;-83
2022/03/15 11:49:25;;;;;;;2.13;0.75;;;14.70;99.90;;;;;;5040740;28;20234;-81
2022/03/15 11:51:51;;;;;;;15.55;3.67;;;14.50;99.90;;;;;;5053445;28;20183;-85
2022/03/15 11:54:50;;;;;;;9.48;4.63;;;14.60;99.90;;;;;;5054999;28;20179;-92
2022/03/15 11:57:27;;;;;;;13.35;4.78;;;14.60;99.90;;;;;;5055556;28;20191;-82
2022/03/15 11:59:56;;;;;;;11.75;4.68;;;14.60;99.90;;;;;;5059080;28;20260;-81
2022/03/15 12:02:32;;;;;;;7.53;4.32;;;14.30;99.90;;;;;;5057583;28;20226;-79
2022/03/15 12:04:58;;;;;;;7.90;4.38;;;14.10;99.90;;;;;;5053394;28;20229;-81
2022/03/15 12:07:45;;;;;;;10.93;4.28;;;14.00;99.90;;;;;;5045317;28;20598;-79
2022/03/15 12:10:11;;;;;;;3.88;3.22;;;13.90;99.90;;;;;;5053483;28;20174;-94
2022/03/15 12:12:40;;;;;;;7.75;4.47;;;13.70;99.90;;;;;;5052783;28;20193;-82
2022/03/15 12:15:15;;;;;;;10.10;3.80;;;13.70;99.90;;;;;;5036002;28;20179;-95
2022/03/15 12:17:42;;;;;;;9.70;3.97;;;13.20;99.90;;;;;;5055001;28;20166;-86
2022/03/15 12:20:14;;;;;;;5.68;3.88;;;13.10;99.90;;;;;;5035416;28;20270;-85
2022/03/15 12:22:42;;;;;;;9.05;4.10;;;12.90;99.90;;;;;;5036130;28;20206;-87
2022/03/15 12:25:13;;;;;;;9.40;3.72;;;12.70;99.90;;;;;;5037044;28;20525;-84
2022/03/15 12:27:45;;;;;;;11.57;3.80;;;13.00;99.90;;;;;;5054717;28;20659;-89
2022/03/15 12:30:17;;;;;;;9.05;3.15;;;13.20;99.90;;;;;;5054650;28;20186;-82
2022/03/15 12:32:58;;;;;;;5.90;4.07;;;13.20;99.90;;;;;;5051876;28;20623;-81
2022/03/15 12:35:25;;;;;;;11.80;4.30;;;13.40;99.90;;;;;;5053788;28;20177;-80
2022/03/15 12:37:51;;;;;;;10.65;5.05;;;13.40;99.90;;;;;;5037232;28;20163;-80
2022/03/15 12:40:16;;;;;;;9.45;4.10;;;13.50;99.90;;;;;;5054311;28;20233;-86
2022/03/15 12:42:57;;;;;;;40.78;5.03;;;13.40;99.90;;;;;;5054626;28;20206;-89